Time;durP1;ratioP1;P1;durP2;ratioP2;P2;SDS_P1;SDS_P2;PMS_P1;PMS_P2;Temp;Humidity;BMP_temperature;BMP_pressure;BME280_temperature;BME280_humidity;BME280_pressure;Samples;Min_cycle;Max_cycle;Signal;HPM_P1;HPM_P2
2022/10/14 00:02:18;;;;;;;27.38;20.13;;;;;;;12.91;100.00;101417.41;4769444;30;20043;-50
2022/10/14 00:05:08;;;;;;;24.00;19.58;;;;;;;12.93;100.00;101426.19;4767488;30;20091;-52
2022/10/14 00:07:55;;;;;;;24.15;19.35;;;;;;;12.93;100.00;101404.28;4769524;30;20056;-50
2022/10/14 00:10:43;;;;;;;26.30;19.58;;;;;;;12.93;100.00;101410.59;4758786;30;20048;-51
2022/10/14 00:13:16;;;;;;;25.30;19.38;;;;;;;12.93;100.00;101404.28;4766015;30;20041;-52
2022/10/14 00:15:44;;;;;;;26.52;19.83;;;;;;;12.93;100.00;101420.72;4770750;30;20557;-53
2022/10/14 00:18:11;;;;;;;21.92;18.23;;;;;;;12.93;100.00;101409.78;4770644;30;20484;-48
2022/10/14 00:20:39;;;;;;;24.92;18.45;;;;;;;12.93;100.00;101416.06;4771278;30;20495;-49
2022/10/14 00:23:07;;;;;;;23.95;18.55;;;;;;;12.92;100.00;101419.88;4766410;30;20051;-50
2022/10/14 00:25:37;;;;;;;23.95;18.88;;;;;;;12.92;100.00;101416.34;4770431;30;20039;-54
2022/10/14 00:28:05;;;;;;;24.20;18.38;;;;;;;12.92;100.00;101419.88;4769502;30;20395;-49
2022/10/14 00:30:33;;;;;;;21.17;18.15;;;;;;;12.94;100.00;101416.88;4767827;30;20117;-50
2022/10/14 00:33:02;;;;;;;22.73;17.20;;;;;;;12.94;100.00;101419.59;4764757;30;20060;-50
2022/10/14 00:35:31;;;;;;;23.13;17.58;;;;;;;12.95;100.00;101408.41;4766528;30;20054;-49
2022/10/14 00:37:59;;;;;;;23.75;18.30;;;;;;;12.96;100.00;101420.16;4772329;30;20066;-49
2022/10/14 00:40:27;;;;;;;24.95;18.73;;;;;;;12.96;100.00;101407.34;4768443;30;20048;-49
2022/10/14 00:42:54;;;;;;;21.88;17.77;;;;;;;12.97;100.00;101403.50;4776506;30;20087;-50
2022/10/14 00:45:24;;;;;;;20.77;17.30;;;;;;;12.96;100.00;101407.34;4769688;30;20054;-52
2022/10/14 00:47:54;;;;;;;25.60;18.52;;;;;;;12.97;100.00;101400.75;4764282;30;20135;-49
2022/10/14 00:50:23;;;;;;;22.38;16.75;;;;;;;12.97;100.00;101399.94;4751572;30;20392;-51
2022/10/14 00:52:55;;;;;;;22.80;17.70;;;;;;;12.98;100.00;101401.56;4746157;30;20059;-53
2022/10/14 00:55:25;;;;;;;25.60;17.88;;;;;;;12.97;100.00;101395.28;4754411;30;20507;-53
2022/10/14 00:57:55;;;;;;;28.02;18.42;;;;;;;12.98;100.00;101396.09;4754836;30;20518;-52
2022/10/14 01:00:26;;;;;;;25.58;17.48;;;;;;;12.98;100.00;101398.84;4752979;30;20048;-55
2022/10/14 01:02:59;;;;;;;22.77;17.90;;;;;;;12.97;100.00;101394.47;4769574;30;20512;-50
2022/10/14 01:06:00;;;;;;;24.75;17.20;;;;;;;12.96;100.00;101393.66;4769282;30;20059;-50
2022/10/14 01:09:17;;;;;;;21.63;17.83;;;;;;;12.95;100.00;101378.31;4769506;30;20047;-50
2022/10/14 01:12:22;;;;;;;23.85;18.50;;;;;;;12.93;100.00;101375.03;4762300;30;20125;-54
2022/10/14 01:15:16;;;;;;;23.50;16.83;;;;;;;12.93;100.00;101383.22;4756596;30;20052;-52
2022/10/14 01:18:24;;;;;;;23.25;17.65;;;;;;;12.93;100.00;101376.94;4766786;30;20133;-55
2022/10/14 01:21:31;;;;;;;21.70;17.50;;;;;;;12.93;100.00;101374.22;4759451;30;20479;-51
2022/10/14 01:25:03;;;;;;;24.77;17.10;;;;;;;12.93;100.00;101372.28;4751873;30;20063;-50
2022/10/14 01:28:20;;;;;;;25.52;17.95;;;;;;;12.93;100.00;101360.53;4759309;29;20048;-50
2022/10/14 01:31:00;;;;;;;23.42;17.73;;;;;;;12.93;100.00;101355.88;4751731;30;20056;-50
2022/10/14 01:33:37;;;;;;;22.42;16.77;;;;;;;12.94;100.00;101345.75;4752730;30;20056;-54
2022/10/14 01:36:10;;;;;;;24.30;17.25;;;;;;;12.93;100.00;101339.47;4747752;30;20052;-50
2022/10/14 01:38:45;;;;;;;22.67;17.17;;;;;;;12.93;100.00;101335.91;4753064;30;20130;-48
2022/10/14 01:41:21;;;;;;;22.58;16.73;;;;;;;12.93;100.00;101322.25;4736353;30;20048;-49
2022/10/14 01:43:52;;;;;;;23.45;16.83;;;;;;;12.95;100.00;101322.78;4757100;30;20135;-53
2022/10/14 01:46:25;;;;;;;24.67;16.80;;;;;;;12.94;100.00;101313.78;4739623;30;20040;-50
2022/10/14 01:49:02;;;;;;;22.27;17.17;;;;;;;12.96;100.00;101313.47;4744656;30;20063;-50
2022/10/14 01:51:48;;;;;;;23.25;16.10;;;;;;;12.95;100.00;101299.00;4768348;30;20135;-53
2022/10/14 01:54:34;;;;;;;21.48;14.70;;;;;;;12.95;100.00;101307.19;4754424;30;20142;-53
2022/10/14 01:57:10;;;;;;;20.30;15.27;;;;;;;12.94;100.00;101307.47;4752347;30;20048;-52
2022/10/14 01:59:43;;;;;;;19.77;14.93;;;;;;;12.93;100.00;101312.13;4734865;30;20534;-56
2022/10/14 02:02:13;;;;;;;24.30;15.40;;;;;;;12.94;100.00;101318.41;4752082;30;20105;-55
2022/10/14 02:04:43;;;;;;;20.42;13.70;;;;;;;12.93;100.00;101322.25;4768483;30;20060;-52
2022/10/14 02:07:40;;;;;;;20.85;13.48;;;;;;;12.93;100.00;101328.53;4765129;30;20111;-52
2022/10/14 02:10:19;;;;;;;21.25;13.88;;;;;;;12.92;100.00;101310.50;4750733;30;20467;-52
2022/10/14 02:13:00;;;;;;;19.98;13.95;;;;;;;12.93;100.00;101306.66;4765743;30;20051;-53
2022/10/14 02:15:48;;;;;;;20.90;13.55;;;;;;;12.93;100.00;101312.13;4754534;30;20043;-52
2022/10/14 02:18:33;;;;;;;21.42;14.30;;;;;;;12.93;100.00;101301.19;4761712;30;20411;-51
2022/10/14 02:21:30;;;;;;;20.63;13.55;;;;;;;12.94;100.00;101299.25;4740219;30;20147;-52
2022/10/14 02:24:24;;;;;;;20.38;12.70;;;;;;;12.94;100.00;101302.00;4741222;30;20088;-51
2022/10/14 02:27:04;;;;;;;19.83;13.82;;;;;;;12.94;100.00;101300.09;4768512;30;20063;-52
2022/10/14 02:29:36;;;;;;;16.53;12.80;;;;;;;12.94;100.00;101299.25;4751525;30;20048;-51
2022/10/14 02:32:08;;;;;;;19.95;13.60;;;;;;;12.94;100.00;101297.38;4740081;30;20313;-51
2022/10/14 02:34:40;;;;;;;21.77;13.75;;;;;;;12.93;100.00;101306.66;4754237;30;20107;-53
2022/10/14 02:37:14;;;;;;;20.63;14.43;;;;;;;12.93;100.00;101303.91;4739441;30;20132;-50
2022/10/14 02:39:59;;;;;;;21.25;13.13;;;;;;;12.94;100.00;101302.00;4741271;30;20055;-52
2022/10/14 02:42:28;;;;;;;17.80;12.75;;;;;;;12.93;100.00;101305.84;4753908;30;20143;-51
2022/10/14 02:45:00;;;;;;;21.58;14.55;;;;;;;12.94;100.00;101302.00;4772264;30;20056;-52
2022/10/14 02:47:30;;;;;;;20.90;13.88;;;;;;;12.95;100.00;101298.19;4757181;30;20048;-54
2022/10/14 02:50:04;;;;;;;20.33;14.30;;;;;;;12.94;100.00;101307.47;4772003;30;20423;-55
2022/10/14 02:52:40;;;;;;;;;;;;;;;12.94;100.00;101308.31;4758084;30;20055;-52
2022/10/14 02:55:14;;;;;;;22.23;13.63;;;;;;;12.95;100.00;101298.19;4756865;30;20297;-51
2022/10/14 02:57:49;;;;;;;21.88;14.00;;;;;;;12.94;100.00;101296.53;4744393;30;20048;-53
2022/10/14 03:00:29;;;;;;;19.92;13.48;;;;;;;12.94;100.00;101291.06;4771692;30;20138;-51
2022/10/14 03:03:05;;;;;;;;;;;;;;;12.93;100.00;101295.72;4757879;30;20146;-52
2022/10/14 03:05:38;;;;;;;17.38;12.98;;;;;;;12.93;100.00;101286.69;4735754;30;19933;-54
2022/10/14 03:08:13;;;;;;;18.15;13.05;;;;;;;12.93;100.00;101283.94;4748080;30;20071;-52
2022/10/14 03:10:50;;;;;;;18.85;13.25;;;;;;;12.92;100.00;101269.47;4743751;30;20052;-53
2022/10/14 03:13:32;;;;;;;17.63;13.23;;;;;;;12.92;100.00;101268.66;4757988;30;20519;-54
2022/10/14 03:16:07;;;;;;;18.17;13.93;;;;;;;12.93;100.00;101278.47;4755601;30;20048;-52
2022/10/14 03:18:49;;;;;;;22.23;14.05;;;;;;;12.92;100.00;101264.00;4757091;30;20590;-53
2022/10/14 03:21:31;;;;;;;18.60;13.15;;;;;;;12.93;100.00;101270.28;4754801;30;20127;-52
2022/10/14 03:24:09;;;;;;;17.50;12.80;;;;;;;12.93;100.00;101273.81;4767468;30;20060;-51
2022/10/14 03:26:46;;;;;;;17.98;13.48;;;;;;;12.93;100.00;101262.88;4742323;30;20093;-50
2022/10/14 03:29:24;;;;;;;19.65;13.07;;;;;;;12.93;100.00;101257.41;4756411;30;20143;-50
2022/10/14 03:32:06;;;;;;;23.67;14.25;;;;;;;12.93;100.00;101256.59;4743274;30;20055;-51
2022/10/14 03:35:10;;;;;;;19.25;14.48;;;;;;;12.92;100.00;101260.44;4760471;30;20066;-50
2022/10/14 03:38:01;;;;;;;22.10;14.60;;;;;;;12.89;100.00;101259.06;4756489;30;20040;-50
2022/10/14 03:40:40;;;;;;;19.95;13.00;;;;;;;12.89;100.00;101256.34;4744386;30;20051;-51
2022/10/14 03:43:19;;;;;;;19.48;13.88;;;;;;;12.90;100.00;101254.41;4744084;30;20055;-51
2022/10/14 03:46:02;;;;;;;21.27;14.98;;;;;;;12.89;100.00;101255.50;4770425;30;20055;-50
2022/10/14 03:48:37;;;;;;;20.27;14.15;;;;;;;12.89;100.00;101250.03;4755285;30;20496;-51
2022/10/14 03:51:12;;;;;;;21.80;15.00;;;;;;;12.88;100.00;101241.00;4770421;30;20071;-51
2022/10/14 03:53:53;;;;;;;22.80;15.23;;;;;;;12.88;100.00;101240.19;4758244;30;20123;-51
2022/10/14 03:56:36;;;;;;;19.15;13.85;;;;;;;12.88;100.00;101243.75;4733436;30;20067;-50
2022/10/14 03:59:09;;;;;;;18.27;13.48;;;;;;;12.87;100.00;101246.75;4776001;29;20106;-52
2022/10/14 04:01:43;;;;;;;18.83;13.18;;;;;;;12.89;100.00;101236.34;4755268;30;20146;-51
2022/10/14 04:04:31;;;;;;;17.30;13.00;;;;;;;12.90;100.00;101244.28;4754868;30;20067;-51
2022/10/14 04:07:17;;;;;;;19.02;13.80;;;;;;;12.92;100.00;101244.03;4755495;30;20077;-53
2022/10/14 04:09:59;;;;;;;16.40;12.38;;;;;;;12.92;100.00;101227.63;4753147;30;20055;-49
2022/10/14 04:12:34;;;;;;;16.45;13.32;;;;;;;12.92;100.00;101220.22;4754754;30;20116;-52
2022/10/14 04:15:35;;;;;;;21.08;13.13;;;;;;;12.93;100.00;101221.84;4768061;30;20058;-49
2022/10/14 04:18:30;;;;;;;17.23;12.70;;;;;;;12.93;100.00;101218.31;4766912;30;20744;-49
2022/10/14 04:21:20;;;;;;;17.00;12.80;;;;;;;12.92;100.00;101213.94;4766844;30;20060;-53
2022/10/14 04:24:11;;;;;;;16.77;12.48;;;;;;;12.92;100.00;101217.50;4766520;30;20052;-54
2022/10/14 04:27:19;;;;;;;20.17;13.32;;;;;;;12.92;100.00;101211.22;4769994;30;20062;-54
2022/10/14 04:30:13;;;;;;;18.88;12.35;;;;;;;12.92;100.00;101206.56;4755258;30;20052;-53
2022/10/14 04:33:10;;;;;;;17.40;12.20;;;;;;;12.94;100.00;101206.25;4768421;30;20048;-51
2022/10/14 04:35:59;;;;;;;17.48;12.10;;;;;;;12.93;100.00;101208.19;4769516;30;20105;-54
2022/10/14 04:38:53;;;;;;;14.73;11.80;;;;;;;12.94;100.00;101209.00;4755956;30;20051;-49
2022/10/14 04:41:41;;;;;;;21.50;12.27;;;;;;;12.95;100.00;101206.00;4764372;30;20051;-51
2022/10/14 04:44:32;;;;;;;16.98;12.77;;;;;;;12.93;100.00;101196.44;4769592;30;20109;-47
2022/10/14 04:47:21;;;;;;;17.30;13.43;;;;;;;12.90;100.00;101194.25;4773278;30;20052;-48
2022/10/14 04:50:17;;;;;;;15.95;12.48;;;;;;;12.90;100.00;101202.47;4762590;30;20047;-51
2022/10/14 04:53:25;;;;;;;18.38;12.35;;;;;;;12.90;100.00;101197.81;4764093;30;20104;-50
2022/10/14 04:56:27;;;;;;;15.52;11.10;;;;;;;12.92;100.00;101200.28;4758345;30;20551;-49
2022/10/14 04:59:19;;;;;;;14.98;11.73;;;;;;;12.92;100.00;101192.06;4780626;29;20414;-51
2022/10/14 05:02:33;;;;;;;15.57;11.35;;;;;;;12.94;100.00;101195.31;4757623;30;20058;-55
2022/10/14 05:05:21;;;;;;;19.65;11.57;;;;;;;12.95;100.00;101188.78;4764820;30;20066;-53
2022/10/14 05:08:13;;;;;;;14.32;10.20;;;;;;;12.93;100.00;101191.78;4763817;30;20052;-52
2022/10/14 05:11:04;;;;;;;17.88;10.23;;;;;;;12.95;100.00;101188.78;4769055;30;20057;-56
2022/10/14 05:14:00;;;;;;;14.00;10.10;;;;;;;12.95;100.00;101172.38;4768648;30;20052;-51
2022/10/14 05:16:51;;;;;;;14.57;9.88;;;;;;;12.96;100.00;101163.91;4767737;30;20440;-55
2022/10/14 05:19:46;;;;;;;16.85;10.52;;;;;;;12.96;100.00;101163.91;4754890;30;20047;-50
2022/10/14 05:22:35;;;;;;;15.45;10.57;;;;;;;12.96;100.00;101166.63;4765351;30;20051;-53
2022/10/14 05:25:24;;;;;;;16.20;11.93;;;;;;;12.95;100.00;101167.72;4763907;30;20051;-51
2022/10/14 05:28:11;;;;;;;16.65;11.27;;;;;;;12.93;100.00;101158.94;4769489;30;20523;-53
2022/10/14 05:31:01;;;;;;;15.20;10.80;;;;;;;12.92;100.00;101160.06;4109443;30;10000723;-55
2022/10/14 05:33:52;;;;;;;16.70;11.50;;;;;;;12.93;100.00;101147.19;4763587;30;20052;-53
2022/10/14 05:36:41;;;;;;;14.75;10.80;;;;;;;12.94;100.00;101148.81;4765807;30;20051;-52
2022/10/14 05:39:28;;;;;;;15.63;10.75;;;;;;;12.95;100.00;101139.53;4753555;30;20118;-49
2022/10/14 05:42:16;;;;;;;14.98;10.40;;;;;;;12.96;100.00;101135.69;4763188;30;20055;-56
2022/10/14 05:44:45;;;;;;;14.05;9.35;;;;;;;12.96;100.00;101135.69;4765006;30;20039;-52
2022/10/14 05:47:30;;;;;;;13.15;10.38;;;;;;;12.96;100.00;101119.28;4751506;30;20113;-52
2022/10/14 05:50:14;;;;;;;14.48;9.85;;;;;;;12.96;100.00;101122.03;4765878;30;20047;-55
2022/10/14 05:52:52;;;;;;;16.63;10.85;;;;;;;12.98;100.00;101123.38;4737804;30;20050;-53
2022/10/14 05:55:37;;;;;;;13.70;10.18;;;;;;;12.98;100.00;101122.56;4748640;30;20105;-54
2022/10/14 05:58:13;;;;;;;14.05;9.80;;;;;;;12.98;100.00;101122.56;4751792;30;20062;-52
2022/10/14 06:00:52;;;;;;;15.55;9.77;;;;;;;12.98;100.00;101122.56;4752048;30;20055;-54
2022/10/14 06:03:28;;;;;;;13.43;9.80;;;;;;;12.98;100.00;101114.38;4747594;30;20422;-54
2022/10/14 06:06:05;;;;;;;14.30;10.23;;;;;;;12.98;100.00;101117.09;4753098;30;20888;-51
2022/10/14 06:08:44;;;;;;;16.00;9.48;;;;;;;12.96;100.00;101113.81;4752911;30;20538;-56
2022/10/14 06:11:21;;;;;;;14.65;9.30;;;;;;;12.96;100.00;101116.56;4722582;30;20045;-53
2022/10/14 06:13:59;;;;;;;10.48;8.30;;;;;;;12.96;100.00;101113.81;4754415;30;20044;-52
2022/10/14 06:16:35;;;;;;;12.73;9.02;;;;;;;12.97;100.00;101110.00;4755460;30;20066;-53
2022/10/14 06:19:16;;;;;;;13.55;9.35;;;;;;;12.95;100.00;101107.53;4741810;30;20052;-57
2022/10/14 06:21:55;;;;;;;14.60;9.07;;;;;;;12.98;100.00;101108.91;4766100;30;20060;-52
2022/10/14 06:24:31;;;;;;;12.38;8.93;;;;;;;12.99;100.00;101105.06;4783408;29;20055;-53
2022/10/14 06:27:19;;;;;;;91.30;14.25;;;;;;;13.00;100.00;101114.91;4770256;30;20121;-54
2022/10/14 06:30:07;;;;;;;15.15;8.80;;;;;;;13.04;100.00;101110.53;4766382;30;20055;-57
2022/10/14 06:32:52;;;;;;;14.15;9.02;;;;;;;13.04;100.00;101109.72;4771861;30;20052;-53
2022/10/14 06:35:33;;;;;;;13.15;7.93;;;;;;;13.04;100.00;101104.25;4771897;30;20054;-54
2022/10/14 06:38:20;;;;;;;11.95;7.95;;;;;;;13.02;100.00;101107.25;4770342;30;20101;-50
2022/10/14 06:41:00;;;;;;;11.52;7.22;;;;;;;13.02;100.00;101107.25;4767660;30;20062;-51
2022/10/14 06:43:44;;;;;;;11.60;7.63;;;;;;;13.03;100.00;101103.41;4735410;30;20530;-52
2022/10/14 06:46:24;;;;;;;12.48;7.90;;;;;;;13.03;100.00;101097.13;4744502;30;20048;-52
2022/10/14 06:49:11;;;;;;;9.80;6.88;;;;;;;13.02;100.00;101092.75;4771383;30;20055;-55
2022/10/14 06:51:49;;;;;;;10.98;7.32;;;;;;;13.02;100.00;101096.31;4762356;30;20075;-52
2022/10/14 06:54:29;;;;;;;11.20;7.43;;;;;;;13.01;100.00;101097.38;4771511;30;20059;-52
2022/10/14 06:57:16;;;;;;;11.27;7.28;;;;;;;13.02;100.00;101099.03;4770932;30;20058;-51
2022/10/14 07:00:03;;;;;;;12.30;7.43;;;;;;;13.03;100.00;101094.38;4770900;30;20108;-52
2022/10/14 07:02:49;;;;;;;9.82;7.03;;;;;;;13.04;100.00;101087.84;4757909;30;20054;-52
2022/10/14 07:05:35;;;;;;;10.25;7.13;;;;;;;13.03;100.00;101086.19;4771537;30;20104;-52
2022/10/14 07:08:20;;;;;;;12.05;7.03;;;;;;;13.07;100.00;101082.63;4769335;30;20419;-57
2022/10/14 07:11:00;;;;;;;10.82;6.90;;;;;;;13.08;100.00;101072.47;4758341;30;20060;-52
2022/10/14 07:13:44;;;;;;;9.82;6.65;;;;;;;13.07;100.00;101082.63;4771418;30;20051;-54
2022/10/14 07:16:30;;;;;;;11.07;6.90;;;;;;;13.06;100.00;101086.47;4758663;30;20060;-53
2022/10/14 07:19:08;;;;;;;9.52;6.90;;;;;;;13.07;100.00;101081.81;4770172;30;20126;-54
2022/10/14 07:21:54;;;;;;;11.70;7.07;;;;;;;13.07;100.00;101082.63;4765443;30;20612;-52
2022/10/14 07:24:33;;;;;;;9.30;7.03;;;;;;;13.06;100.00;101075.53;4770452;30;20055;-56
2022/10/14 07:27:20;;;;;;;11.30;7.15;;;;;;;13.07;100.00;101082.63;4771757;30;20060;-51
2022/10/14 07:29:58;;;;;;;11.25;7.00;;;;;;;13.08;100.00;101089.72;4764376;30;20074;-55
2022/10/14 07:32:36;;;;;;;9.20;6.93;;;;;;;13.09;100.00;101080.41;4770797;30;20082;-58
2022/10/14 07:35:19;;;;;;;11.13;6.75;;;;;;;13.11;100.00;101077.41;4771072;30;20043;-54
2022/10/14 07:38:03;;;;;;;9.45;6.60;;;;;;;13.12;100.00;101090.81;4761748;30;20746;-54
2022/10/14 07:41:03;;;;;;;12.57;6.85;;;;;;;13.11;100.00;101089.19;4769577;30;20135;-52
2022/10/14 07:43:47;;;;;;;10.13;6.60;;;;;;;13.13;100.00;101097.09;4756272;30;20087;-56
2022/10/14 07:46:33;;;;;;;15.23;6.60;;;;;;;13.13;100.00;101088.88;4757408;30;20471;-54
2022/10/14 07:49:21;;;;;;;10.18;6.90;;;;;;;13.14;100.00;101088.59;4758990;30;20067;-53
2022/10/14 07:52:09;;;;;;;11.43;6.45;;;;;;;13.16;100.00;101083.69;4759849;30;20055;-54
2022/10/14 07:54:50;;;;;;;8.98;6.05;;;;;;;13.16;100.00;101080.94;4763177;30;20082;-52
2022/10/14 07:57:38;;;;;;;10.93;6.32;;;;;;;13.16;100.00;101078.22;4769625;30;20055;-54
2022/10/14 08:00:26;;;;;;;11.35;6.88;;;;;;;13.17;100.00;101066.16;4769467;30;20612;-52
2022/10/14 08:03:08;;;;;;;12.00;7.13;;;;;;;13.17;100.00;101068.91;4770329;30;20048;-53
2022/10/14 08:06:03;;;;;;;9.80;6.97;;;;;;;13.18;100.00;101073.28;4769469;30;20056;-52
2022/10/14 08:08:51;;;;;;;10.15;6.93;;;;;;;13.19;100.00;101069.44;4758101;30;20067;-53
2022/10/14 08:11:39;;;;;;;9.85;7.20;;;;;;;13.21;100.00;101069.97;4758442;30;20110;-52
2022/10/14 08:14:27;;;;;;;11.15;7.03;;;;;;;13.22;100.00;101074.34;4768324;30;20051;-51
2022/10/14 08:17:14;;;;;;;9.00;6.25;;;;;;;13.25;100.00;101069.41;4768010;30;20101;-52
2022/10/14 08:20:01;;;;;;;8.73;6.03;;;;;;;13.25;100.00;101072.16;4768632;30;20062;-53
2022/10/14 08:22:49;;;;;;;10.43;6.25;;;;;;;13.27;100.00;101065.31;4769480;30;20162;-55
2022/10/14 08:25:37;;;;;;;9.55;5.80;;;;;;;13.28;100.00;101060.69;4767990;30;20128;-53
2022/10/14 08:28:25;;;;;;;9.48;5.80;;;;;;;13.29;100.00;101062.31;4769366;30;20101;-53
2022/10/14 08:31:08;;;;;;;10.40;6.05;;;;;;;13.30;100.00;101064.78;4765687;30;20062;-58
2022/10/14 08:33:55;;;;;;;8.32;6.00;;;;;;;13.31;100.00;101055.47;4770256;30;20083;-58
2022/10/14 08:36:42;;;;;;;9.32;5.70;;;;;;;13.34;100.00;101056.81;4770360;30;20051;-53
2022/10/14 08:39:30;;;;;;;9.27;5.93;;;;;;;13.36;100.00;101051.88;4768827;30;20056;-53
2022/10/14 08:43:01;;;;;;;8.02;4.88;;;;;;;13.40;100.00;101058.44;4768968;30;20048;-56
2022/10/14 08:45:56;;;;;;;8.00;5.43;;;;;;;13.42;100.00;101057.06;4763928;30;20052;-52
2022/10/14 08:48:45;;;;;;;8.55;5.38;;;;;;;13.46;100.00;101051.03;4764228;30;20533;-53
2022/10/14 08:51:33;;;;;;;6.53;4.35;;;;;;;13.47;100.00;101056.22;4765060;30;20050;-55
2022/10/14 08:54:44;;;;;;;9.05;5.72;;;;;;;13.50;100.00;101052.09;4770886;30;20059;-54
2022/10/14 08:57:39;;;;;;;8.10;4.95;;;;;;;13.51;100.00;101057.28;4766205;30;20060;-54
2022/10/14 09:00:27;;;;;;;9.82;5.13;;;;;;;13.53;100.00;101057.81;4768882;30;20531;-51
2022/10/14 09:03:43;;;;;;;7.70;5.45;;;;;;;13.57;100.00;101053.41;4761741;30;20063;-50
2022/10/14 09:06:33;;;;;;;8.07;5.28;;;;;;;13.57;100.00;101056.16;4769498;30;20060;-52
2022/10/14 09:09:37;;;;;;;6.57;4.78;;;;;;;13.58;100.00;101052.31;4770032;30;20117;-52
2022/10/14 09:12:27;;;;;;;8.63;5.00;;;;;;;13.59;100.00;101053.97;4768444;30;20052;-57
2022/10/14 09:15:20;;;;;;;8.35;5.43;;;;;;;13.61;100.00;101050.94;4767647;30;20539;-51
2022/10/14 09:18:26;;;;;;;9.10;5.97;;;;;;;13.62;100.00;101047.09;4754767;29;20109;-51
2022/10/14 09:21:45;;;;;;;8.27;4.25;;;;;;;13.63;100.00;101041.31;4763659;30;20473;-51
2022/10/14 09:24:41;;;;;;;9.77;6.25;;;;;;;13.64;100.00;101044.91;4766236;30;20499;-52
2022/10/14 09:27:29;;;;;;;9.85;5.30;;;;;;;13.68;100.00;101042.41;4767117;30;20507;-53
2022/10/14 09:30:17;;;;;;;11.45;5.45;;;;;;;13.67;100.00;101038.84;4770019;30;20052;-50
2022/10/14 09:33:05;;;;;;;7.40;5.13;;;;;;;13.68;100.00;101031.44;4768074;30;20155;-52
2022/10/14 09:35:53;;;;;;;9.52;5.75;;;;;;;13.71;100.00;101030.88;4769917;30;20059;-50
2022/10/14 09:38:41;;;;;;;8.40;5.57;;;;;;;13.72;100.00;101027.06;4765212;30;20048;-51
2022/10/14 09:41:30;;;;;;;9.30;5.20;;;;;;;13.75;100.00;101029.22;4756108;30;20071;-51
2022/10/14 09:44:24;;;;;;;10.80;5.93;;;;;;;13.76;100.00;101025.41;4759043;30;20060;-54
2022/10/14 09:47:13;;;;;;;9.77;5.88;;;;;;;13.79;100.00;101024.81;4758766;30;20056;-54
2022/10/14 09:49:59;;;;;;;7.13;4.72;;;;;;;13.81;100.00;101023.44;4770854;30;20055;-55
2022/10/14 09:53:06;;;;;;;7.70;5.20;;;;;;;13.85;100.00;101021.75;4773456;30;20055;-55
2022/10/14 09:55:59;;;;;;;8.52;5.40;;;;;;;13.91;100.00;101016.25;4769658;30;20083;-53
2022/10/14 09:58:52;;;;;;;8.30;5.32;;;;;;;13.93;100.00;101019.53;4773238;30;20138;-51
2022/10/14 10:01:47;;;;;;;10.75;5.55;;;;;;;13.93;100.00;101009.38;4760732;30;20044;-52
2022/10/14 10:04:41;;;;;;;8.40;5.22;;;;;;;13.95;100.00;101006.31;4771286;30;20060;-52
2022/10/14 10:07:32;;;;;;;9.88;4.85;;;;;;;13.98;100.00;101008.50;4768780;30;20052;-55
2022/10/14 10:10:21;;;;;;;9.20;5.43;;;;;;;14.00;100.00;101012.59;4767174;30;20056;-52
2022/10/14 10:13:45;;;;;;;11.35;5.20;;;;;;;14.02;100.00;101013.13;4764976;30;20048;-54
2022/10/14 10:16:33;;;;;;;11.88;5.78;;;;;;;14.03;100.00;101006.53;4763988;30;20055;-51
2022/10/14 10:19:30;;;;;;;9.95;5.53;;;;;;;14.05;100.00;101009.81;4775786;30;20052;-52
2022/10/14 10:22:30;;;;;;;10.75;6.00;;;;;;;14.04;100.00;101004.63;4771564;30;20546;-51
2022/10/14 10:25:20;;;;;;;10.30;5.50;;;;;;;14.05;100.00;100995.31;4772544;30;20043;-51
2022/10/14 10:28:23;;;;;;;10.38;4.68;;;;;;;14.05;100.00;100992.56;4766174;30;20075;-50
2022/10/14 10:31:39;;;;;;;7.32;4.10;;;;;;;14.05;100.00;100985.16;4766213;30;20056;-50
2022/10/14 10:34:38;;;;;;;7.80;4.75;;;;;;;14.05;100.00;100987.91;4764344;30;20056;-54
2022/10/14 10:37:26;;;;;;;8.45;5.65;;;;;;;14.05;100.00;100987.91;4768674;30;20111;-53
2022/10/14 10:40:28;;;;;;;8.23;4.60;;;;;;;14.09;100.00;100999.09;4771051;30;20052;-53
2022/10/14 10:43:24;;;;;;;9.05;4.80;;;;;;;14.07;100.00;100982.94;4777257;30;20051;-54
2022/10/14 10:46:35;;;;;;;8.52;4.38;;;;;;;14.07;100.00;100979.41;4772971;30;20056;-54
2022/10/14 10:50:07;;;;;;;7.97;4.38;;;;;;;14.07;100.00;100974.72;4764573;30;20179;-55
2022/10/14 10:53:17;;;;;;;6.82;4.00;;;;;;;14.07;100.00;100980.22;4769365;30;20132;-52
2022/10/14 10:56:14;;;;;;;6.28;3.75;;;;;;;14.09;100.00;100979.09;4774281;30;20055;-54
2022/10/14 10:59:43;;;;;;;6.05;3.80;;;;;;;14.09;100.00;100976.34;4772047;30;20044;-50
2022/10/14 11:02:53;;;;;;;7.97;4.35;;;;;;;14.11;100.00;100968.66;4745870;30;20077;-53
2022/10/14 11:05:56;;;;;;;9.82;5.38;;;;;;;14.13;100.00;100971.94;4763951;30;20054;-57
2022/10/14 11:12:14;;;;;;;7.63;4.75;;;;;;;14.16;100.00;100957.66;4769141;30;20048;-52
2022/10/14 11:15:26;;;;;;;8.93;4.47;;;;;;;14.18;100.00;100949.97;4763620;30;20048;-52
2022/10/14 11:18:19;;;;;;;8.02;4.97;;;;;;;14.18;100.00;100948.03;4774902;30;20060;-50
2022/10/14 11:21:43;;;;;;;9.05;4.55;;;;;;;14.20;100.00;100945.03;4773259;30;20066;-50
2022/10/14 11:24:57;;;;;;;7.22;4.70;;;;;;;14.20;100.00;100950.50;4773978;30;20503;-50
2022/10/14 11:27:47;;;;;;;8.23;4.07;;;;;;;14.19;100.00;100946.09;4769449;30;20523;-50
2022/10/14 11:30:57;;;;;;;7.40;4.13;;;;;;;14.18;100.00;100952.72;4761035;30;20797;-54
2022/10/14 11:34:03;;;;;;;7.55;3.95;;;;;;;14.19;100.00;100943.38;4761305;30;20048;-52
2022/10/14 11:37:12;;;;;;;6.88;4.00;;;;;;;14.19;100.00;100937.88;4768807;30;20423;-51
2022/10/14 11:40:17;;;;;;;5.28;3.50;;;;;;;14.20;100.00;100945.03;4767527;30;20089;-51
2022/10/14 11:43:19;;;;;;;7.85;4.20;;;;;;;14.21;100.00;100931.00;4774365;30;20048;-51
2022/10/14 11:46:11;;;;;;;6.35;3.92;;;;;;;14.22;100.00;100929.91;4773273;30;20062;-51
2022/10/14 11:49:13;;;;;;;7.50;3.72;;;;;;;14.23;100.00;100928.00;4764931;30;20080;-53
2022/10/14 11:52:10;;;;;;;5.40;3.30;;;;;;;14.24;100.00;100908.53;4770412;30;20461;-57
2022/10/14 11:55:05;;;;;;;4.82;3.20;;;;;;;14.25;100.00;100901.13;4757087;30;20097;-61
2022/10/14 11:58:08;;;;;;;6.72;3.42;;;;;;;14.27;100.00;100901.66;4768792;30;20062;-56
2022/10/14 12:01:02;;;;;;;5.80;3.47;;;;;;;14.30;100.00;100894.75;4766666;30;20130;-55
2022/10/14 12:04:25;;;;;;;5.97;3.00;;;;;;;14.30;100.00;100890.09;4768323;30;20056;-51
2022/10/14 12:07:21;;;;;;;7.43;3.42;;;;;;;14.29;100.00;100891.22;4766046;30;20063;-56
2022/10/14 12:10:22;;;;;;;4.75;3.00;;;;;;;14.28;100.00;100890.38;4764771;30;20059;-55
2022/10/14 12:13:30;;;;;;;5.57;3.20;;;;;;;14.28;100.00;100887.63;4772891;30;20152;-53
2022/10/14 12:16:20;;;;;;;5.32;3.20;;;;;;;14.28;100.00;100887.63;4768713;30;20532;-54
2022/10/14 12:19:10;;;;;;;4.88;3.17;;;;;;;14.28;100.00;100881.34;4768023;30;20125;-58
2022/10/14 12:22:08;;;;;;;4.32;2.85;;;;;;;14.28;100.00;100892.31;4760096;30;20052;-54
2022/10/14 12:25:02;;;;;;;6.30;3.28;;;;;;;14.29;100.00;100888.47;4758755;30;20113;-54
2022/10/14 12:27:51;;;;;;;5.72;3.47;;;;;;;14.30;100.00;100872.84;4761237;30;20052;-55
2022/10/14 12:30:40;;;;;;;5.40;3.67;;;;;;;14.30;100.00;100870.91;4768232;30;20063;-52
2022/10/14 12:33:28;;;;;;;6.05;4.00;;;;;;;14.30;100.00;100865.44;4758824;30;20511;-57
2022/10/14 12:36:30;;;;;;;5.55;3.33;;;;;;;14.30;100.00;100859.94;4767845;30;20060;-55
2022/10/14 12:39:18;;;;;;;6.28;3.72;;;;;;;14.32;100.00;100859.66;4758174;30;20052;-53
2022/10/14 12:42:12;;;;;;;7.07;4.28;;;;;;;14.34;100.00;100855.53;4760687;30;20437;-56
2022/10/14 12:45:02;;;;;;;8.27;5.10;;;;;;;14.37;100.00;100848.63;4761862;30;20048;-58
2022/10/14 12:48:15;;;;;;;7.70;4.28;;;;;;;14.39;100.00;100847.22;4759834;30;20044;-55